Oshkosh, WI

3:33 PM CDT on October 23, 2014 (GMT -0500)
Scott54902Wx | Change Station
CLOSE
Current Station
Personal Weather Station
Location: Oshkosh, WI
Elevation: 761 ft
Nearby Weather Stations

Elev 761 ft 44.01 °N, 88.57 °W | Updated 10 minutes ago

Light Rain
Light Rain Mist
50.7 °F
Feels Like 50.7 °F
N
1.7
Wind Variable Wind from West

Today
High -- | Low -- °F
--% Chance of Precip.
Yesterday
High -- | Low -- °F
Precip. -- in
7:18 AM 5:57 PM
Waning Crescent, 0% visible
Pressure 30.05 in
Visibility 4.0 miles
Clouds Overcast 2700 ft
Dew Point 48 °F
Humidity 91%
Rainfall 0.09 in
Snow Depth Not available.
UV 1 out of 12
Pollen .10 out of 12
PM2.5 Good
Flu Activity Sporadic
SPECI KOSH 232017Z 00000KT 4SM -RA BR OVC027 10/08 A3005 RMK AO2 P0002 T01000083

More Conditions Fewer Conditions

Pressure 30.05 in
Visibility 4.0 miles
Clouds Overcast 2700 ft
Dew Point 48 °F
Humidity 91%
Rainfall 0.09 in
Snow Depth Not available.
UV 1 out of 12
Pollen .10 out of 12
PM2.5 Good
Flu Activity Sporadic
SPECI KOSH 232017Z 00000KT 4SM -RA BR OVC027 10/08 A3005 RMK AO2 P0002 T01000083

More Conditions Fewer Conditions

10-Day Weather Forecast

Almanac

Astronomy

Oct. 23, 2014 Rise Set
Actual Time 7:18 AM CDT 5:57 PM CDT
Civil Twilight 6:49 AM CDT 6:26 PM CDT
Nautical Twilight 6:15 AM CDT 7:00 PM CDT
Astronomical Twilight 5:42 AM CDT 7:33 PM CDT
Moon 6:57 AM CDT 5:58 PM CDT
Length of Visible Light 11h 37m
Length of Day
10h 38m
Tomorrow will be 2m 50s shorter.
Waning Crescent, 0% of the Moon is Illuminated
Today
Waning Crescent
Oct 23
New
Oct 30
First Quarter
Nov 6
Full
Nov 14
Last Quarter

Today's Extremes

State Highs State Lows

Community

WunderPhotos

Upload Photos

1,764,361 photos uploaded!

WunderBlogs® & News

By Dr. Jeff Masters
Director of Meteorology, Weather Underground
By Kari Strenfel
Meteorologist, Weather Underground
By Christopher C. Burt
Weather Historian, Weather Underground
October 23, 2014
October 23, 2014
October 23, 2014

Nearby

Air Quality

  Air Quality AQ Index Pollutant
Yesterday Good
OZONE
Yesterday Good
PM10
Current Good
PM2.5
Thursday Good
PM2.5
Friday Moderate
PM2.5
Saturday Good
PM2.5
Sunday Good
PM2.5

Snow Depth

Station Depth Elevation
No new snow has been reported.

Earthquake Activity

City Distance Mag. Time & Date
No recent earthquake activity has been reported nearby.
Minimum magnitude displayed is 2.5.

Coastal Water Temperatures

Place Temperature
No Stations Reporting

Nearby Weather Stations